createdAt,value
2023-11-25T00:00:31.747Z,14.31
2023-11-25T00:01:28.668Z,14.39
2023-11-25T00:02:25.685Z,14.81
2023-11-25T00:03:23.059Z,15.01
2023-11-25T00:04:20.487Z,14.42
2023-11-25T00:05:17.740Z,14.94
2023-11-25T00:06:15.934Z,15.01
2023-11-25T00:07:12.876Z,14.51
2023-11-25T00:08:09.947Z,14.86
2023-11-25T00:09:07.671Z,14.69
2023-11-25T00:10:06.422Z,13.56
2023-11-25T00:11:12.208Z,14.51
2023-11-25T00:12:15.119Z,14.87
2023-11-25T00:13:12.262Z,14.16
2023-11-25T00:14:09.890Z,14.48
2023-11-25T00:15:07.062Z,15.04
2023-11-25T00:16:04.816Z,15.03
2023-11-25T00:17:01.802Z,15.12
2023-11-25T00:17:59.711Z,14.81
2023-11-25T00:18:56.620Z,14.10
2023-11-25T00:19:53.420Z,14.33
2023-11-25T00:20:50.417Z,15.03
2023-11-25T00:21:47.410Z,15.21
2023-11-25T00:22:44.194Z,14.46
2023-11-25T00:23:40.970Z,14.99
2023-11-25T00:24:37.841Z,14.81
2023-11-25T00:25:34.704Z,14.82
2023-11-25T00:26:31.549Z,15.16
2023-11-25T00:27:28.984Z,14.08
2023-11-25T00:28:26.364Z,14.73
2023-11-25T00:29:23.260Z,15.02
2023-11-25T00:30:20.297Z,15.15
2023-11-25T00:31:17.206Z,15.07
2023-11-25T00:32:14.261Z,14.91
2023-11-25T00:33:11.141Z,14.41
2023-11-25T00:34:08.013Z,14.64
2023-11-25T00:35:06.514Z,15.04
2023-11-25T00:36:04.827Z,14.22
2023-11-25T00:37:05.164Z,13.32
2023-11-25T00:38:02.372Z,15.15
2023-11-25T00:39:00.760Z,15.09
2023-11-25T00:39:57.761Z,14.10
2023-11-25T00:40:57.285Z,14.90
2023-11-25T00:41:54.690Z,14.64
2023-11-25T00:42:52.367Z,14.29
2023-11-25T00:43:49.339Z,14.67
2023-11-25T00:44:46.232Z,14.56
2023-11-25T00:45:43.481Z,14.68
2023-11-25T00:46:40.632Z,15.19
2023-11-25T00:47:41.021Z,14.68
2023-11-25T00:48:37.983Z,14.79
2023-11-25T00:49:39.488Z,14.83
2023-11-25T00:50:36.489Z,13.69
2023-11-25T00:51:33.302Z,14.68
2023-11-25T00:52:30.183Z,14.24
2023-11-25T00:53:26.971Z,15.00
2023-11-25T00:54:23.815Z,14.63
2023-11-25T00:55:21.894Z,14.41
2023-11-25T00:56:18.862Z,14.25
2023-11-25T00:57:16.250Z,14.76
2023-11-25T00:58:13.449Z,14.53
2023-11-25T00:59:10.305Z,14.87
2023-11-25T01:00:17.690Z,14.19
2023-11-25T01:01:14.950Z,14.63
2023-11-25T01:02:11.826Z,14.71
2023-11-25T01:03:08.912Z,14.70
2023-11-25T01:04:05.972Z,13.98
2023-11-25T01:05:05.354Z,14.40
2023-11-25T01:06:10.265Z,14.03
2023-11-25T01:07:07.116Z,13.89
2023-11-25T01:08:04.108Z,13.86
2023-11-25T01:09:00.876Z,14.33
2023-11-25T01:09:57.683Z,14.49
2023-11-25T01:10:54.492Z,14.32
2023-11-25T01:11:51.396Z,14.18
2023-11-25T01:12:48.203Z,12.96
2023-11-25T01:13:45.110Z,13.98
2023-11-25T01:14:42.431Z,14.28
2023-11-25T01:15:40.147Z,13.75
2023-11-25T01:16:37.205Z,14.23
2023-11-25T01:17:34.560Z,13.20
2023-11-25T01:18:32.025Z,13.78
2023-11-25T01:19:29.375Z,14.16
2023-11-25T01:20:26.269Z,14.23
2023-11-25T01:21:23.136Z,13.87
2023-11-25T01:22:20.010Z,14.18
2023-11-25T01:23:16.997Z,14.11
2023-11-25T01:24:13.830Z,14.19
2023-11-25T01:25:10.827Z,13.46
2023-11-25T01:26:07.748Z,13.92
2023-11-25T01:27:04.892Z,13.95
2023-11-25T01:28:01.749Z,14.12
2023-11-25T01:28:58.550Z,13.30
2023-11-25T01:29:55.409Z,13.43
2023-11-25T01:30:52.222Z,13.91
2023-11-25T01:31:49.259Z,13.15
2023-11-25T01:32:46.966Z,13.99
2023-11-25T01:33:44.590Z,13.24
2023-11-25T01:34:41.723Z,14.02
2023-11-25T01:35:45.228Z,13.99
2023-11-25T01:36:44.260Z,13.33
2023-11-25T01:37:41.142Z,13.38
2023-11-25T01:38:38.349Z,13.06
2023-11-25T01:39:38.209Z,13.22
2023-11-25T01:40:35.081Z,13.66
2023-11-25T01:41:32.213Z,13.82
2023-11-25T01:42:28.989Z,13.85
2023-11-25T01:43:26.600Z,13.94
2023-11-25T01:44:23.659Z,13.83
2023-11-25T01:45:20.541Z,13.06
2023-11-25T01:46:37.918Z,13.93
2023-11-25T01:47:35.661Z,12.62
2023-11-25T01:48:32.798Z,13.61
2023-11-25T01:49:29.727Z,13.51
2023-11-25T01:50:26.638Z,13.13
2023-11-25T01:51:23.541Z,13.76
2023-11-25T01:52:21.598Z,13.34
2023-11-25T01:53:22.574Z,13.22
2023-11-25T01:54:21.443Z,13.52
2023-11-25T01:55:19.011Z,13.57
2023-11-25T01:56:15.836Z,13.20
2023-11-25T01:57:16.789Z,13.44
2023-11-25T01:58:18.096Z,12.83
2023-11-25T01:59:17.007Z,12.67
2023-11-25T02:00:15.359Z,12.55
2023-11-25T02:01:13.147Z,10.82
2023-11-25T02:02:11.610Z,11.42
2023-11-25T02:03:09.010Z,10.85
2023-11-25T02:04:06.099Z,10.39
2023-11-25T02:05:03.998Z,10.35
2023-11-25T02:06:00.954Z,10.23
2023-11-25T02:06:57.852Z,10.79
2023-11-25T02:07:54.746Z,10.56
2023-11-25T02:08:51.963Z,10.06
2023-11-25T02:09:48.931Z,10.14
2023-11-25T02:10:46.107Z,9.81
2023-11-25T02:12:03.401Z,9.75
2023-11-25T02:13:03.151Z,9.72
2023-11-25T02:14:00.007Z,10.32
2023-11-25T02:14:56.977Z,9.68
2023-11-25T02:15:54.225Z,9.69
2023-11-25T02:16:51.382Z,9.39
2023-11-25T02:17:48.409Z,9.42
2023-11-25T02:18:45.280Z,9.16
2023-11-25T02:19:45.277Z,9.93
2023-11-25T02:20:42.471Z,9.85
2023-11-25T02:21:43.299Z,9.27
2023-11-25T02:22:40.629Z,9.68
2023-11-25T02:23:37.537Z,9.56
2023-11-25T02:24:34.370Z,9.23
2023-11-25T02:25:32.514Z,9.79
2023-11-25T02:26:30.910Z,9.37
2023-11-25T02:27:27.893Z,9.75
2023-11-25T02:28:25.509Z,9.73
2023-11-25T02:29:22.282Z,9.81
2023-11-25T02:30:19.391Z,9.87
2023-11-25T02:31:16.430Z,10.14
2023-11-25T02:32:14.134Z,9.29
2023-11-25T02:33:12.905Z,10.07
2023-11-25T02:34:11.025Z,9.36
2023-11-25T02:35:08.609Z,9.42
2023-11-25T02:36:05.721Z,9.67
2023-11-25T02:37:03.078Z,9.53
2023-11-25T02:37:59.953Z,8.82
2023-11-25T02:38:58.493Z,9.08
2023-11-25T02:39:57.704Z,8.96
2023-11-25T02:40:54.992Z,8.92
2023-11-25T02:41:54.115Z,7.74
2023-11-25T02:42:51.386Z,8.97
2023-11-25T02:43:48.300Z,8.12
2023-11-25T02:44:45.284Z,8.13
2023-11-25T02:45:42.258Z,8.70
2023-11-25T02:46:39.800Z,8.01
2023-11-25T02:47:36.733Z,8.93
2023-11-25T02:48:33.814Z,7.43
2023-11-25T02:49:31.199Z,8.12
2023-11-25T02:50:28.690Z,8.30
2023-11-25T02:51:25.569Z,8.26
2023-11-25T02:52:27.508Z,8.88
2023-11-25T02:53:24.791Z,8.32
2023-11-25T02:54:23.454Z,8.93
2023-11-25T02:55:22.180Z,8.40
2023-11-25T02:56:19.183Z,8.71
2023-11-25T02:57:20.237Z,7.93
2023-11-25T02:58:18.501Z,8.82
2023-11-25T02:59:19.171Z,7.91
2023-11-25T03:00:20.193Z,8.30
2023-11-25T03:01:17.718Z,7.93
2023-11-25T03:02:15.879Z,8.38
2023-11-25T03:03:23.925Z,7.76
2023-11-25T03:04:21.623Z,7.54
2023-11-25T03:05:18.851Z,8.43
2023-11-25T03:06:17.428Z,7.19
2023-11-25T03:07:15.068Z,8.28
2023-11-25T03:08:13.692Z,8.24
2023-11-25T03:09:14.710Z,8.23
2023-11-25T03:10:12.018Z,7.61
2023-11-25T03:11:17.120Z,8.08
2023-11-25T03:12:13.968Z,8.32
2023-11-25T03:13:12.167Z,7.54
2023-11-25T03:14:09.175Z,7.97
2023-11-25T03:15:06.399Z,8.17
2023-11-25T03:16:03.253Z,8.24
2023-11-25T03:17:00.637Z,7.94
2023-11-25T03:17:57.717Z,8.02
2023-11-25T03:18:54.531Z,8.05
2023-11-25T03:19:51.575Z,8.00
2023-11-25T03:20:49.843Z,8.13
2023-11-25T03:21:46.753Z,7.21
2023-11-25T03:22:45.108Z,7.47
2023-11-25T03:23:42.544Z,7.94
2023-11-25T03:24:40.540Z,7.91
2023-11-25T03:25:38.977Z,7.96
2023-11-25T03:26:35.839Z,7.32
2023-11-25T03:27:32.990Z,7.78
2023-11-25T03:28:29.858Z,7.13
2023-11-25T03:29:27.531Z,7.03
2023-11-25T03:30:25.098Z,6.73
2023-11-25T03:31:22.060Z,7.47
2023-11-25T03:32:18.989Z,7.69
2023-11-25T03:33:15.904Z,7.66
2023-11-25T03:34:12.861Z,6.73
2023-11-25T03:35:09.742Z,6.58
2023-11-25T03:36:06.879Z,7.73
2023-11-25T03:37:04.010Z,7.34
2023-11-25T03:38:00.851Z,7.38
2023-11-25T03:38:57.748Z,5.78
2023-11-25T03:39:54.596Z,7.33
2023-11-25T03:40:53.882Z,8.09
2023-11-25T03:41:50.778Z,8.17
2023-11-25T03:42:47.720Z,7.50
2023-11-25T03:43:45.697Z,8.09
2023-11-25T03:44:42.534Z,8.04
2023-11-25T03:45:39.393Z,7.80
2023-11-25T03:46:36.272Z,7.27
2023-11-25T03:47:33.962Z,8.04
2023-11-25T03:48:31.388Z,7.13
2023-11-25T03:49:28.427Z,8.36
2023-11-25T03:50:25.379Z,8.25
2023-11-25T03:51:22.271Z,8.27
2023-11-25T03:52:19.147Z,8.04
2023-11-25T03:53:15.968Z,7.69
2023-11-25T03:54:12.935Z,7.92
2023-11-25T03:55:11.440Z,8.68
2023-11-25T03:56:08.713Z,8.40
2023-11-25T03:57:05.830Z,7.86
2023-11-25T03:58:04.307Z,8.30
2023-11-25T03:59:01.209Z,8.13
2023-11-25T03:59:58.049Z,7.72
2023-11-25T04:00:55.162Z,8.32
2023-11-25T04:01:52.317Z,7.06
2023-11-25T04:02:49.910Z,7.17
2023-11-25T04:03:47.024Z,8.04
2023-11-25T04:04:45.778Z,6.85
2023-11-25T04:05:42.730Z,8.26
2023-11-25T04:06:39.567Z,8.17
2023-11-25T04:07:36.437Z,7.50
2023-11-25T04:08:33.712Z,8.37
2023-11-25T04:09:30.534Z,7.47
2023-11-25T04:10:28.473Z,7.89
2023-11-25T04:11:25.452Z,8.11
2023-11-25T04:12:22.283Z,7.72
2023-11-25T04:13:19.126Z,7.44
2023-11-25T04:14:17.364Z,8.04
2023-11-25T04:15:16.893Z,7.59
2023-11-25T04:16:14.297Z,7.82
2023-11-25T04:17:12.914Z,7.51
2023-11-25T04:18:10.001Z,7.37
2023-11-25T04:19:07.049Z,7.66
2023-11-25T04:20:14.077Z,7.29
2023-11-25T04:21:11.075Z,7.34
2023-11-25T04:22:07.880Z,7.36
2023-11-25T04:23:08.224Z,6.91
2023-11-25T04:24:05.812Z,6.68
2023-11-25T04:25:04.358Z,6.66
2023-11-25T04:26:01.263Z,7.55
2023-11-25T04:26:58.106Z,7.43
2023-11-25T04:27:55.080Z,7.58
2023-11-25T04:28:52.525Z,6.72
2023-11-25T04:29:49.346Z,7.21
2023-11-25T04:30:46.181Z,7.36
2023-11-25T04:31:43.109Z,6.38
2023-11-25T04:32:41.639Z,7.55
2023-11-25T04:33:38.526Z,7.47
2023-11-25T04:34:35.422Z,7.41
2023-11-25T04:35:32.904Z,7.39
2023-11-25T04:36:29.846Z,7.45
2023-11-25T04:37:27.071Z,7.05
2023-11-25T04:38:24.781Z,7.02
2023-11-25T04:39:21.551Z,7.18
2023-11-25T04:40:19.786Z,7.46
2023-11-25T04:41:17.174Z,6.72
2023-11-25T04:42:14.345Z,7.21
2023-11-25T04:43:11.380Z,7.17
2023-11-25T04:44:08.284Z,7.01
2023-11-25T04:45:05.763Z,7.31
2023-11-25T04:46:05.803Z,6.95
2023-11-25T04:47:02.793Z,7.52
2023-11-25T04:47:59.657Z,7.21
2023-11-25T04:48:56.571Z,7.48
2023-11-25T04:49:54.016Z,7.56
2023-11-25T04:50:50.878Z,7.35
2023-11-25T04:51:47.714Z,7.25
2023-11-25T04:52:44.994Z,7.38
2023-11-25T04:53:41.912Z,7.44
2023-11-25T04:54:39.368Z,5.71
2023-11-25T04:55:36.296Z,6.75
2023-11-25T04:56:33.251Z,6.44
2023-11-25T04:57:30.116Z,6.67
2023-11-25T04:58:26.964Z,6.27
2023-11-25T04:59:23.841Z,6.83
2023-11-25T05:00:22.911Z,7.08
2023-11-25T05:01:20.059Z,6.92
2023-11-25T05:02:17.026Z,6.53
2023-11-25T05:03:14.165Z,6.96
2023-11-25T05:04:12.063Z,6.81
2023-11-25T05:05:09.837Z,6.73
2023-11-25T05:06:10.894Z,6.32
2023-11-25T05:07:07.805Z,6.39
2023-11-25T05:08:06.142Z,6.62
2023-11-25T05:09:06.171Z,6.10
2023-11-25T05:10:08.008Z,6.66
2023-11-25T05:11:05.075Z,6.48
2023-11-25T05:12:01.905Z,5.39
2023-11-25T05:12:58.741Z,6.86
2023-11-25T05:13:55.505Z,7.09
2023-11-25T05:14:52.939Z,6.91
2023-11-25T05:15:49.754Z,6.25
2023-11-25T05:16:48.110Z,5.88
2023-11-25T05:17:45.181Z,6.42
2023-11-25T05:18:43.671Z,6.78
2023-11-25T05:19:40.632Z,5.81
2023-11-25T05:20:38.259Z,5.92
2023-11-25T05:21:35.098Z,6.36
2023-11-25T05:22:31.993Z,6.41
2023-11-25T05:23:28.873Z,5.83
2023-11-25T05:24:26.646Z,6.72
2023-11-25T05:25:23.859Z,5.76
2023-11-25T05:26:20.873Z,6.46
2023-11-25T05:27:17.779Z,5.85
2023-11-25T05:28:14.912Z,6.12
2023-11-25T05:29:11.734Z,6.28
2023-11-25T05:30:12.117Z,5.74
2023-11-25T05:31:09.126Z,5.49
2023-11-25T05:32:09.293Z,6.03
2023-11-25T05:33:06.304Z,5.82
2023-11-25T05:34:07.218Z,5.73
2023-11-25T05:35:06.807Z,3.24
2023-11-25T05:36:03.898Z,5.02
2023-11-25T05:37:01.496Z,4.91
2023-11-25T05:37:59.412Z,5.27
2023-11-25T05:38:56.533Z,5.93
2023-11-25T05:39:54.286Z,5.50
2023-11-25T05:40:53.737Z,5.33
2023-11-25T05:41:50.885Z,4.54
2023-11-25T05:42:55.049Z,5.45
2023-11-25T05:43:52.266Z,5.59
2023-11-25T05:44:49.129Z,4.60
2023-11-25T05:45:47.402Z,5.17
2023-11-25T05:46:44.394Z,4.40
2023-11-25T05:47:41.317Z,4.97
2023-11-25T05:48:39.301Z,4.83
2023-11-25T05:49:36.158Z,4.61
2023-11-25T05:50:33.094Z,4.74
2023-11-25T05:51:34.371Z,4.76
2023-11-25T05:52:31.378Z,4.66
2023-11-25T05:53:29.406Z,4.05
2023-11-25T05:54:26.270Z,3.95
2023-11-25T05:55:23.798Z,4.22
2023-11-25T05:56:22.887Z,4.58
2023-11-25T05:57:19.860Z,3.80
2023-11-25T05:58:17.247Z,4.27
2023-11-25T05:59:14.144Z,4.18
2023-11-25T06:00:13.584Z,4.70
2023-11-25T06:01:10.426Z,4.41
2023-11-25T06:02:07.360Z,3.89
2023-11-25T06:03:05.394Z,4.56
2023-11-25T06:04:02.564Z,4.31
2023-11-25T06:04:59.527Z,4.43
2023-11-25T06:05:56.786Z,4.71
2023-11-25T06:06:54.013Z,4.56
2023-11-25T06:07:51.233Z,4.31
2023-11-25T06:08:50.648Z,4.69
2023-11-25T06:09:47.554Z,3.44
2023-11-25T06:10:46.252Z,4.14
2023-11-25T06:11:44.617Z,4.23
2023-11-25T06:12:42.957Z,4.59
2023-11-25T06:13:39.921Z,3.84
2023-11-25T06:14:38.856Z,3.76
2023-11-25T06:15:35.674Z,4.22
2023-11-25T06:16:33.951Z,4.56
2023-11-25T06:17:33.542Z,4.27
2023-11-25T06:18:32.891Z,4.51
2023-11-25T06:19:31.846Z,2.22
2023-11-25T06:20:28.694Z,3.52
2023-11-25T06:21:25.542Z,4.52
2023-11-25T06:22:22.957Z,4.34
2023-11-25T06:23:20.032Z,4.03
2023-11-25T06:24:17.417Z,3.47
2023-11-25T06:25:15.238Z,3.85
2023-11-25T06:26:13.080Z,4.22
2023-11-25T06:27:28.705Z,4.10
2023-11-25T06:28:25.873Z,4.53
2023-11-25T06:29:22.745Z,4.40
2023-11-25T06:30:20.042Z,4.33
2023-11-25T06:31:18.080Z,3.55
2023-11-25T06:32:15.048Z,4.13
2023-11-25T06:33:11.905Z,3.99
2023-11-25T06:34:08.886Z,4.34
2023-11-25T06:35:07.512Z,4.19
2023-11-25T06:36:05.235Z,4.48
2023-11-25T06:37:02.248Z,3.90
2023-11-25T06:37:59.778Z,4.52
2023-11-25T06:38:56.756Z,4.09
2023-11-25T06:39:53.693Z,4.81
2023-11-25T06:40:50.927Z,4.22
2023-11-25T06:41:50.403Z,4.79
2023-11-25T06:42:47.466Z,4.20
2023-11-25T06:43:45.207Z,4.03
2023-11-25T06:44:43.225Z,4.33
2023-11-25T06:45:41.759Z,4.82
2023-11-25T06:46:38.665Z,4.72
2023-11-25T06:47:36.071Z,3.87
2023-11-25T06:48:34.223Z,4.41
2023-11-25T06:49:31.038Z,3.91
2023-11-25T06:50:28.039Z,4.46
2023-11-25T06:51:24.865Z,3.93
2023-11-25T06:52:21.940Z,4.67
2023-11-25T06:53:18.931Z,3.02
2023-11-25T06:54:16.419Z,3.87
2023-11-25T06:55:13.410Z,2.95
2023-11-25T06:56:12.008Z,3.43
2023-11-25T06:57:08.962Z,4.43
2023-11-25T06:58:05.859Z,4.29
2023-11-25T06:59:04.277Z,3.81
2023-11-25T07:00:01.142Z,4.48
2023-11-25T07:01:01.958Z,4.31
2023-11-25T07:01:58.975Z,4.43
2023-11-25T07:02:55.969Z,4.08
2023-11-25T07:03:52.825Z,5.43
2023-11-25T07:04:50.792Z,4.13
2023-11-25T07:05:47.704Z,4.44
2023-11-25T07:06:44.638Z,4.28
2023-11-25T07:07:41.605Z,3.44
2023-11-25T07:08:42.346Z,3.43
2023-11-25T07:09:41.777Z,4.68
2023-11-25T07:10:38.654Z,4.42
2023-11-25T07:11:35.602Z,4.51
2023-11-25T07:12:32.571Z,4.65
2023-11-25T07:13:29.536Z,4.38
2023-11-25T07:14:26.971Z,4.06
2023-11-25T07:15:23.834Z,3.51
2023-11-25T07:16:21.012Z,3.98
2023-11-25T07:17:18.219Z,4.31
2023-11-25T07:18:15.712Z,3.82
2023-11-25T07:19:12.880Z,4.34
2023-11-25T07:20:14.532Z,4.12
2023-11-25T07:21:14.244Z,4.66
2023-11-25T07:22:12.197Z,4.74
2023-11-25T07:23:09.080Z,4.32
2023-11-25T07:24:08.803Z,3.49
2023-11-25T07:25:06.887Z,4.31
2023-11-25T07:26:03.762Z,4.23
2023-11-25T07:27:05.981Z,4.07
2023-11-25T07:28:04.762Z,4.38
2023-11-25T07:29:02.125Z,4.43
2023-11-25T07:30:02.425Z,4.00
2023-11-25T07:31:00.295Z,4.18
2023-11-25T07:31:57.397Z,4.35
2023-11-25T07:32:56.785Z,3.86
2023-11-25T07:33:55.642Z,4.18
2023-11-25T07:34:52.552Z,3.76
2023-11-25T07:35:50.684Z,3.80
2023-11-25T07:36:48.071Z,4.62
2023-11-25T07:37:45.107Z,3.06
2023-11-25T07:38:42.116Z,4.10
2023-11-25T07:39:39.516Z,3.68
2023-11-25T07:40:36.532Z,4.35
2023-11-25T07:41:33.316Z,3.63
2023-11-25T07:42:30.155Z,4.18
2023-11-25T07:43:27.188Z,3.58
2023-11-25T07:44:25.128Z,4.03
2023-11-25T07:45:21.977Z,4.30
2023-11-25T07:46:18.954Z,3.63
2023-11-25T07:47:17.252Z,4.20
2023-11-25T07:48:14.294Z,3.91
2023-11-25T07:49:11.184Z,2.28
2023-11-25T07:50:08.434Z,4.04
2023-11-25T07:51:06.436Z,4.44
2023-11-25T07:52:03.487Z,4.51
2023-11-25T07:53:00.496Z,4.03
2023-11-25T07:53:57.618Z,4.33
2023-11-25T07:54:54.724Z,3.60
2023-11-25T07:55:52.540Z,4.07
2023-11-25T07:56:49.616Z,3.49
2023-11-25T07:57:48.636Z,3.58
2023-11-25T07:58:45.926Z,3.68
2023-11-25T07:59:43.441Z,3.40
2023-11-25T08:00:40.371Z,4.26
2023-11-25T08:01:38.012Z,4.46
2023-11-25T08:02:35.063Z,4.34
2023-11-25T08:03:32.232Z,3.86
2023-11-25T08:04:29.129Z,3.19
2023-11-25T08:05:29.849Z,3.43
2023-11-25T08:06:27.416Z,3.36
2023-11-25T08:07:24.949Z,4.28
2023-11-25T08:08:22.060Z,3.58
2023-11-25T08:09:21.899Z,3.75
2023-11-25T08:10:19.413Z,3.45
2023-11-25T08:11:26.531Z,3.66
2023-11-25T08:12:23.398Z,3.82
2023-11-25T08:13:21.067Z,3.48
2023-11-25T08:14:18.729Z,4.15
2023-11-25T08:15:16.030Z,4.04
2023-11-25T08:16:12.851Z,3.35
2023-11-25T08:17:09.815Z,4.32
2023-11-25T08:18:06.957Z,2.95
2023-11-25T08:19:05.105Z,4.16
2023-11-25T08:20:02.016Z,3.34
2023-11-25T08:20:58.967Z,3.56
2023-11-25T08:21:55.733Z,3.82
2023-11-25T08:22:52.662Z,4.03
2023-11-25T08:23:49.896Z,4.39
2023-11-25T08:24:46.733Z,3.49
2023-11-25T08:25:43.701Z,3.25
2023-11-25T08:26:41.077Z,3.32
2023-11-25T08:27:39.561Z,4.14
2023-11-25T08:28:36.413Z,3.86
2023-11-25T08:29:33.201Z,3.64
2023-11-25T08:30:31.222Z,4.26
2023-11-25T08:31:28.113Z,2.39
2023-11-25T08:32:25.098Z,4.41
2023-11-25T08:33:22.169Z,4.15
2023-11-25T08:34:19.085Z,4.25
2023-11-25T08:35:15.988Z,3.98
2023-11-25T08:36:14.817Z,3.91
2023-11-25T08:37:11.726Z,3.32
2023-11-25T08:38:08.727Z,3.42
2023-11-25T08:39:05.580Z,3.54
2023-11-25T08:40:02.541Z,3.36
2023-11-25T08:40:59.584Z,3.81
2023-11-25T08:41:59.009Z,4.22
2023-11-25T08:42:57.543Z,4.36
2023-11-25T08:43:54.690Z,4.06
2023-11-25T08:44:52.732Z,4.35
2023-11-25T08:45:49.953Z,4.43
2023-11-25T08:46:47.798Z,3.64
2023-11-25T08:47:44.866Z,3.48
2023-11-25T08:48:44.532Z,4.40
2023-11-25T08:49:41.496Z,3.66
2023-11-25T08:50:38.627Z,3.76
2023-11-25T08:51:35.544Z,3.65
2023-11-25T08:52:35.370Z,3.60
2023-11-25T08:53:33.239Z,2.95
2023-11-25T08:54:37.873Z,3.28
2023-11-25T08:55:35.135Z,3.44
2023-11-25T08:56:36.432Z,3.84
2023-11-25T08:57:36.987Z,3.99
2023-11-25T08:58:34.323Z,3.57
2023-11-25T08:59:32.631Z,3.86
2023-11-25T09:00:30.641Z,3.73
2023-11-25T09:01:28.378Z,3.81
2023-11-25T09:02:26.476Z,4.16
2023-11-25T09:03:26.606Z,3.26
2023-11-25T09:04:26.650Z,4.33
2023-11-25T09:05:24.474Z,3.55
2023-11-25T09:06:21.704Z,3.99
2023-11-25T09:07:18.563Z,3.97
2023-11-25T09:08:15.869Z,4.51
2023-11-25T09:09:16.883Z,4.52
2023-11-25T09:10:13.755Z,4.80
2023-11-25T09:11:10.810Z,4.33
2023-11-25T09:12:09.842Z,3.99
2023-11-25T09:13:06.917Z,3.56
2023-11-25T09:14:07.424Z,3.87
2023-11-25T09:15:07.584Z,4.63
2023-11-25T09:16:05.149Z,3.72
2023-11-25T09:17:02.529Z,4.20
2023-11-25T09:18:00.880Z,3.50
2023-11-25T09:19:00.314Z,3.52
2023-11-25T09:19:57.447Z,3.81
2023-11-25T09:20:54.288Z,3.01
2023-11-25T09:21:51.063Z,4.57
2023-11-25T09:22:47.943Z,4.28
2023-11-25T09:23:45.625Z,3.60
2023-11-25T09:24:42.540Z,3.77
2023-11-25T09:25:39.464Z,3.91
2023-11-25T09:26:36.397Z,4.28
2023-11-25T09:27:34.511Z,2.64
2023-11-25T09:28:31.737Z,4.34
2023-11-25T09:29:28.679Z,3.46
2023-11-25T09:30:25.668Z,3.44
2023-11-25T09:31:24.106Z,4.27
2023-11-25T09:32:21.072Z,3.36
2023-11-25T09:33:17.942Z,4.37
2023-11-25T09:34:14.987Z,3.86
2023-11-25T09:35:13.998Z,4.19
2023-11-25T09:36:11.053Z,4.53
2023-11-25T09:37:12.297Z,4.65
2023-11-25T09:38:09.106Z,3.78
2023-11-25T09:39:11.042Z,3.69
2023-11-25T09:40:15.889Z,4.42
2023-11-25T09:41:13.097Z,3.81
2023-11-25T09:42:09.929Z,4.35
2023-11-25T09:43:08.301Z,4.82
2023-11-25T09:44:08.611Z,4.14
2023-11-25T09:45:06.126Z,4.68
2023-11-25T09:46:03.963Z,4.75
2023-11-25T09:47:01.098Z,4.75
2023-11-25T09:48:16.841Z,4.43
2023-11-25T09:49:14.358Z,3.62
2023-11-25T09:50:12.058Z,4.23
2023-11-25T09:51:09.645Z,4.26
2023-11-25T09:52:10.886Z,3.87
2023-11-25T09:53:26.305Z,4.39
2023-11-25T09:54:23.440Z,4.31
2023-11-25T09:55:24.294Z,4.25
2023-11-25T09:56:21.975Z,3.85
2023-11-25T09:57:22.536Z,4.38
2023-11-25T09:58:19.470Z,4.85
2023-11-25T09:59:17.186Z,3.72
2023-11-25T10:00:18.730Z,3.77
2023-11-25T10:01:17.471Z,4.46
2023-11-25T10:02:17.948Z,3.83
2023-11-25T10:03:19.654Z,4.13
2023-11-25T10:04:17.514Z,3.96
2023-11-25T10:05:14.532Z,4.58
2023-11-25T10:06:12.406Z,4.35
2023-11-25T10:07:10.757Z,4.36
2023-11-25T10:08:07.955Z,3.88
2023-11-25T10:09:06.872Z,2.27
2023-11-25T10:10:03.965Z,4.47
2023-11-25T10:11:09.290Z,3.70
2023-11-25T10:12:13.109Z,4.19
2023-11-25T10:13:16.173Z,4.14
2023-11-25T10:14:14.924Z,3.75
2023-11-25T10:15:12.017Z,4.39
2023-11-25T10:16:09.905Z,4.52
2023-11-25T10:17:19.801Z,4.56
2023-11-25T10:18:16.610Z,3.91
2023-11-25T10:19:24.670Z,4.12
2023-11-25T10:20:23.948Z,4.70
2023-11-25T10:21:21.433Z,4.65
2023-11-25T10:22:18.304Z,4.15
2023-11-25T10:23:22.820Z,4.26
2023-11-25T10:24:23.642Z,4.31
2023-11-25T10:25:23.813Z,3.65
2023-11-25T10:26:22.038Z,3.50
2023-11-25T10:27:19.067Z,4.41
2023-11-25T10:28:18.868Z,4.70
2023-11-25T10:29:15.830Z,4.40
2023-11-25T10:30:16.296Z,4.30
2023-11-25T10:31:15.412Z,4.30
2023-11-25T10:32:12.463Z,4.07
2023-11-25T10:33:09.444Z,4.27
2023-11-25T10:34:11.726Z,4.26
2023-11-25T10:35:10.519Z,4.93
2023-11-25T10:36:07.796Z,4.45
2023-11-25T10:37:05.942Z,3.91
2023-11-25T10:38:06.338Z,4.35
2023-11-25T10:39:05.261Z,4.51
2023-11-25T10:40:02.185Z,4.49
2023-11-25T10:41:07.030Z,3.97
2023-11-25T10:42:08.690Z,3.70
2023-11-25T10:43:06.312Z,4.27
2023-11-25T10:44:03.597Z,3.78
2023-11-25T10:45:00.909Z,3.34
2023-11-25T10:46:09.200Z,3.89
2023-11-25T10:47:06.790Z,3.31
2023-11-25T10:48:04.172Z,5.06
2023-11-25T10:49:01.335Z,4.82
2023-11-25T10:49:59.684Z,5.21
2023-11-25T10:50:59.242Z,4.03
2023-11-25T10:51:59.161Z,4.69
2023-11-25T10:53:02.445Z,4.65
2023-11-25T10:54:00.626Z,3.92
2023-11-25T10:54:58.389Z,4.77
2023-11-25T10:56:00.743Z,4.71
2023-11-25T10:57:00.863Z,4.05
2023-11-25T10:58:02.176Z,5.21
2023-11-25T10:59:01.358Z,4.71
2023-11-25T11:00:00.371Z,4.69
2023-11-25T11:00:59.378Z,4.95
2023-11-25T11:02:04.031Z,4.84
2023-11-25T11:03:08.980Z,4.57
2023-11-25T11:04:37.311Z,3.74
2023-11-25T11:05:43.610Z,4.02
2023-11-25T11:06:55.674Z,4.90
2023-11-25T11:08:07.428Z,5.01
2023-11-25T11:09:10.658Z,4.08
2023-11-25T11:10:16.094Z,4.22
2023-11-25T11:11:26.867Z,4.14
2023-11-25T11:12:34.067Z,4.28
2023-11-25T11:13:37.451Z,5.41
2023-11-25T11:14:45.932Z,4.93
2023-11-25T11:15:50.744Z,5.59
2023-11-25T11:17:10.788Z,4.70
2023-11-25T11:18:23.666Z,3.42
2023-11-25T11:19:27.231Z,4.22
2023-11-25T11:20:29.901Z,4.57
2023-11-25T11:21:35.932Z,4.70
2023-11-25T11:22:36.516Z,4.19
2023-11-25T11:23:38.931Z,4.97
2023-11-25T11:24:43.054Z,4.58
2023-11-25T11:25:51.617Z,3.84
2023-11-25T11:27:18.975Z,4.87
2023-11-25T11:28:29.001Z,3.51
2023-11-25T11:29:37.773Z,4.53
2023-11-25T11:30:57.050Z,4.83
2023-11-25T11:31:58.583Z,5.05
2023-11-25T11:32:58.427Z,4.97
2023-11-25T11:33:56.906Z,4.88
2023-11-25T11:34:53.761Z,4.26
2023-11-25T11:35:50.816Z,5.18
2023-11-25T11:36:47.670Z,5.24
2023-11-25T11:37:50.008Z,5.28
2023-11-25T11:38:47.071Z,4.65
2023-11-25T11:39:52.572Z,5.34
2023-11-25T11:40:49.670Z,3.95
2023-11-25T11:41:46.608Z,5.17
2023-11-25T11:42:47.795Z,4.38
2023-11-25T11:44:05.211Z,4.96
2023-11-25T11:45:27.666Z,4.94
2023-11-25T11:46:28.470Z,4.84
2023-11-25T11:47:25.981Z,5.33
2023-11-25T11:48:27.421Z,4.22
2023-11-25T11:49:25.999Z,4.33
2023-11-25T11:50:31.035Z,5.02
2023-11-25T11:51:29.777Z,4.17
2023-11-25T11:52:27.045Z,4.59
2023-11-25T11:53:25.079Z,3.55
2023-11-25T11:54:21.978Z,4.59
2023-11-25T11:55:34.912Z,4.61
2023-11-25T11:57:02.483Z,4.95
2023-11-25T11:58:13.789Z,4.57
2023-11-25T11:59:14.395Z,4.54
2023-11-25T12:00:16.940Z,4.41
2023-11-25T12:01:13.982Z,4.03
2023-11-25T12:02:11.987Z,3.97
2023-11-25T12:03:10.121Z,4.59
2023-11-25T12:04:07.214Z,4.45
2023-11-25T12:05:05.597Z,4.80
2023-11-25T12:06:02.550Z,3.23
2023-11-25T12:07:00.219Z,4.45
2023-11-25T12:07:57.325Z,4.77
2023-11-25T12:08:57.027Z,4.98
2023-11-25T12:09:55.626Z,4.27
2023-11-25T12:10:53.274Z,4.87
2023-11-25T12:12:01.269Z,4.01
2023-11-25T12:12:58.738Z,3.89
2023-11-25T12:13:55.575Z,4.19
2023-11-25T12:14:54.921Z,4.44
2023-11-25T12:16:02.675Z,4.06
2023-11-25T12:16:59.716Z,4.16
2023-11-25T12:17:57.214Z,4.43
2023-11-25T12:18:54.156Z,3.41
2023-11-25T12:19:54.326Z,3.42
2023-11-25T12:20:51.410Z,4.26
2023-11-25T12:21:48.339Z,4.20
2023-11-25T12:22:46.227Z,3.57
2023-11-25T12:23:49.808Z,3.78
2023-11-25T12:24:48.884Z,3.89
2023-11-25T12:25:45.829Z,4.32
2023-11-25T12:26:51.285Z,3.10
2023-11-25T12:28:10.170Z,5.01
2023-11-25T12:29:07.899Z,4.45
2023-11-25T12:30:05.105Z,4.67
2023-11-25T12:31:02.070Z,3.99
2023-11-25T12:31:59.758Z,4.49
2023-11-25T12:32:56.755Z,3.66
2023-11-25T12:33:53.657Z,3.57
2023-11-25T12:34:50.648Z,4.36
2023-11-25T12:35:47.869Z,2.24
2023-11-25T12:36:44.809Z,3.83
2023-11-25T12:37:48.122Z,3.50
2023-11-25T12:38:48.775Z,4.75
2023-11-25T12:39:45.806Z,4.24
2023-11-25T12:40:43.622Z,4.21
2023-11-25T12:41:40.848Z,4.62
2023-11-25T12:42:39.969Z,4.14
2023-11-25T12:43:37.436Z,4.15
2023-11-25T12:44:54.955Z,4.10
2023-11-25T12:45:52.356Z,3.39
2023-11-25T12:47:07.800Z,3.97
2023-11-25T12:48:09.318Z,4.02
2023-11-25T12:49:22.749Z,3.72
2023-11-25T12:50:19.729Z,4.76
2023-11-25T12:51:16.639Z,4.22
2023-11-25T12:52:21.186Z,3.31
2023-11-25T12:53:18.439Z,4.14
2023-11-25T12:54:15.563Z,4.71
2023-11-25T12:55:13.520Z,3.68
2023-11-25T12:56:15.528Z,4.31
2023-11-25T12:57:13.741Z,4.12